Archival Weather

Aeroparque Jorge Newbery

Buenos Aires, Argentina (SABE)

Report from: Thursday, September 21, 2023 7:11 AM -03
Current time: Saturday, March 2, 2024 7:35 AM -03

Current weather – Weather history – Daily summaries
Weather forecast

Present weatherLight drizzle, mist
Temperature17.0°C (62.6°F)
Dew point17.0°C (62.6°F)
Winds 2 kts (1 m/s, 2.3 mph) Vrb
Winds variableWinds variable
Visibility1.2 mi. (2 km)
Clouds Ceiling: Overcast 1,200 ft. (366 m)
Altimeter29.83 in.Hg (1010 mB)
Relative humidity100 %
Density altitude611 ft. (186 m)
Remarks No significant changes expected in the next two hours
Special weather observation
Flight conditions Instrument Meteorological Conditions
Raw dataSPECI SABE 211011Z VRB02KT 2000 -DZ BR OVC012 17/17 Q1010 NOSIG RMK PP999
An error has occurred. This application may no longer respond until reloaded. Reload 🗙